createdAt,value
2023-06-11T00:00:32.448Z,52.70
2023-06-11T00:02:59.031Z,52.70
2023-06-11T00:05:25.534Z,52.60
2023-06-11T00:07:51.963Z,52.60
2023-06-11T00:10:18.466Z,52.70
2023-06-11T00:12:44.906Z,52.70
2023-06-11T00:15:11.548Z,52.80
2023-06-11T00:17:38.219Z,52.80
2023-06-11T00:20:04.710Z,53.00
2023-06-11T00:22:31.185Z,53.20
2023-06-11T00:24:57.673Z,53.10
2023-06-11T00:27:24.144Z,53.10
2023-06-11T00:29:50.637Z,53.20
2023-06-11T00:32:17.106Z,53.20
2023-06-11T00:34:43.598Z,53.30
2023-06-11T00:37:10.090Z,53.30
2023-06-11T00:39:36.635Z,53.30
2023-06-11T00:42:03.144Z,53.50
2023-06-11T00:44:29.580Z,53.70
2023-06-11T00:46:56.036Z,53.80
2023-06-11T00:49:22.524Z,54.00
2023-06-11T00:51:48.992Z,54.20
2023-06-11T00:54:15.418Z,54.30
2023-06-11T00:56:41.882Z,54.50
2023-06-11T00:59:08.341Z,54.80
2023-06-11T01:01:34.881Z,55.10
2023-06-11T01:04:01.533Z,55.10
2023-06-11T01:06:28.133Z,55.20
2023-06-11T01:08:54.627Z,55.30
2023-06-11T01:11:21.123Z,55.50
2023-06-11T01:13:47.582Z,55.60
2023-06-11T01:16:14.041Z,55.70
2023-06-11T01:18:40.569Z,55.80
2023-06-11T01:21:07.052Z,55.90
2023-06-11T01:23:33.561Z,56.10
2023-06-11T01:25:59.983Z,56.30
2023-06-11T01:28:26.410Z,56.40
2023-06-11T01:30:53.056Z,56.30
2023-06-11T01:33:19.595Z,56.40
2023-06-11T01:35:46.056Z,56.50
2023-06-11T01:38:12.478Z,56.30
2023-06-11T01:40:38.943Z,56.40
2023-06-11T01:43:05.432Z,56.40
2023-06-11T01:45:31.894Z,56.30
2023-06-11T01:47:58.322Z,56.30
2023-06-11T01:50:24.921Z,56.30
2023-06-11T01:52:51.398Z,56.40
2023-06-11T01:55:17.833Z,56.30
2023-06-11T01:57:44.340Z,56.30
2023-06-11T02:00:10.821Z,56.20
2023-06-11T02:02:37.339Z,56.20
2023-06-11T02:05:03.827Z,56.20
2023-06-11T02:07:30.252Z,56.10
2023-06-11T02:09:56.675Z,56.00
2023-06-11T02:12:23.108Z,56.00
2023-06-11T02:14:49.549Z,56.00
2023-06-11T02:17:15.961Z,56.10
2023-06-11T02:19:42.432Z,56.10
2023-06-11T02:22:08.911Z,56.20
2023-06-11T02:24:35.402Z,56.10
2023-06-11T02:27:01.887Z,56.20
2023-06-11T02:29:28.379Z,56.30
2023-06-11T02:31:54.901Z,56.40
2023-06-11T02:34:21.350Z,56.50
2023-06-11T02:36:47.882Z,56.50
2023-06-11T02:39:14.369Z,56.60
2023-06-11T02:41:40.904Z,56.70
2023-06-11T02:44:07.361Z,56.90
2023-06-11T02:46:33.885Z,57.00
2023-06-11T02:49:00.417Z,57.00
2023-06-11T02:51:26.886Z,57.00
2023-06-11T02:53:53.320Z,57.10
2023-06-11T02:56:19.751Z,57.10
2023-06-11T02:58:46.208Z,57.20
2023-06-11T03:01:12.701Z,57.40
2023-06-11T03:03:39.252Z,57.50
2023-06-11T03:06:05.747Z,57.50
2023-06-11T03:08:32.221Z,57.60
2023-06-11T03:10:58.691Z,57.80
2023-06-11T03:13:25.183Z,57.90
2023-06-11T03:15:51.688Z,58.00
2023-06-11T03:18:18.116Z,58.00
2023-06-11T03:20:44.553Z,58.10
2023-06-11T03:23:10.988Z,58.20
2023-06-11T03:25:37.452Z,58.30
2023-06-11T03:28:03.875Z,58.30
2023-06-11T03:30:30.357Z,58.40
2023-06-11T03:32:56.817Z,58.50
2023-06-11T03:35:23.273Z,58.40
2023-06-11T03:37:49.717Z,58.50
2023-06-11T03:40:16.189Z,58.50
2023-06-11T03:42:42.691Z,58.60
2023-06-11T03:45:09.267Z,58.60
2023-06-11T03:47:35.994Z,58.70
2023-06-11T03:50:02.542Z,58.60
2023-06-11T03:52:29.031Z,58.80
2023-06-11T03:54:55.480Z,58.80
2023-06-11T03:57:21.895Z,58.80
2023-06-11T03:59:48.323Z,58.80
2023-06-11T04:02:14.809Z,58.80
2023-06-11T04:04:41.497Z,58.70
2023-06-11T04:07:08.000Z,58.80
2023-06-11T04:09:34.425Z,58.80
2023-06-11T04:12:00.893Z,58.80
2023-06-11T04:14:27.376Z,58.80
2023-06-11T04:16:53.881Z,58.80
2023-06-11T04:19:20.426Z,58.80
2023-06-11T04:21:46.929Z,58.90
2023-06-11T04:24:13.433Z,58.90
2023-06-11T04:26:39.933Z,59.00
2023-06-11T04:29:06.455Z,58.90
2023-06-11T04:31:32.952Z,58.90
2023-06-11T04:33:59.392Z,58.80
2023-06-11T04:36:26.042Z,58.90
2023-06-11T04:38:52.589Z,58.90
2023-06-11T04:41:19.086Z,58.90
2023-06-11T04:43:45.564Z,59.00
2023-06-11T04:46:12.032Z,59.00
2023-06-11T04:48:38.536Z,59.10
2023-06-11T04:51:05.039Z,59.20
2023-06-11T04:53:31.484Z,59.30
2023-06-11T04:55:57.937Z,59.10
2023-06-11T04:58:24.373Z,59.00
2023-06-11T05:00:50.809Z,59.50
2023-06-11T05:03:17.355Z,58.90
2023-06-11T05:05:43.838Z,58.90
2023-06-11T05:08:10.362Z,58.90
2023-06-11T05:10:36.835Z,59.00
2023-06-11T05:13:03.467Z,59.10
2023-06-11T05:15:29.909Z,59.00
2023-06-11T05:17:59.304Z,58.90
2023-06-11T05:20:25.819Z,58.80
2023-06-11T05:22:52.231Z,58.90
2023-06-11T05:25:18.701Z,58.70
2023-06-11T05:27:45.235Z,58.60
2023-06-11T05:30:11.718Z,58.50
2023-06-11T05:32:38.203Z,58.40
2023-06-11T05:35:04.639Z,58.30
2023-06-11T05:37:31.066Z,58.20
2023-06-11T05:39:57.491Z,58.10
2023-06-11T05:42:23.956Z,58.00
2023-06-11T05:44:50.353Z,58.00
2023-06-11T05:47:16.851Z,58.10
2023-06-11T05:49:43.389Z,58.10
2023-06-11T05:52:09.861Z,58.10
2023-06-11T05:54:36.334Z,58.10
2023-06-11T05:57:02.816Z,58.00
2023-06-11T05:59:29.256Z,58.00
2023-06-11T06:01:55.666Z,57.90
2023-06-11T06:04:22.255Z,57.90
2023-06-11T06:06:48.759Z,57.70
2023-06-11T06:09:15.241Z,57.60
2023-06-11T06:11:41.656Z,57.60
2023-06-11T06:14:08.168Z,57.50
2023-06-11T06:16:34.658Z,57.40
2023-06-11T06:19:01.166Z,57.40
2023-06-11T06:21:27.626Z,57.40
2023-06-11T06:23:54.173Z,57.30
2023-06-11T06:26:20.712Z,57.30
2023-06-11T06:28:47.176Z,57.10
2023-06-11T06:31:13.730Z,56.90
2023-06-11T06:33:40.295Z,56.90
2023-06-11T06:36:08.786Z,56.80
2023-06-11T06:38:35.256Z,56.60
2023-06-11T06:41:01.683Z,56.60
2023-06-11T06:43:28.199Z,56.50
2023-06-11T06:45:54.661Z,56.50
2023-06-11T06:48:21.223Z,56.30
2023-06-11T06:50:47.776Z,56.10
2023-06-11T06:53:14.204Z,56.00
2023-06-11T06:55:40.662Z,56.00
2023-06-11T06:58:07.102Z,55.90
2023-06-11T07:00:33.593Z,55.80
2023-06-11T07:03:00.092Z,55.50
2023-06-11T07:05:26.609Z,55.30
2023-06-11T07:07:53.051Z,55.20
2023-06-11T07:10:19.507Z,55.00
2023-06-11T07:12:45.972Z,54.80
2023-06-11T07:15:12.418Z,54.60
2023-06-11T07:17:38.868Z,54.50
2023-06-11T07:20:05.465Z,54.30
2023-06-11T07:22:31.951Z,54.00
2023-06-11T07:24:58.437Z,53.60
2023-06-11T07:27:25.103Z,53.30
2023-06-11T07:29:51.648Z,53.10
2023-06-11T07:32:18.080Z,52.70
2023-06-11T07:34:44.488Z,52.40
2023-06-11T07:37:10.961Z,52.10
2023-06-11T07:39:37.428Z,51.80
2023-06-11T07:42:03.858Z,51.60
2023-06-11T07:44:30.317Z,51.10
2023-06-11T07:46:56.805Z,51.00
2023-06-11T07:49:23.256Z,50.60
2023-06-11T07:51:49.698Z,50.30
2023-06-11T07:54:16.160Z,50.00
2023-06-11T07:56:42.629Z,49.60
2023-06-11T07:59:09.128Z,49.90
2023-06-11T08:01:35.599Z,48.90
2023-06-11T08:04:02.043Z,48.20
2023-06-11T08:06:28.529Z,47.60
2023-06-11T08:08:54.994Z,47.70
2023-06-11T08:11:21.544Z,47.20
2023-06-11T08:13:48.077Z,46.90
2023-06-11T08:16:14.608Z,46.70
2023-06-11T08:18:41.097Z,46.40
2023-06-11T08:21:07.573Z,45.90
2023-06-11T08:23:34.046Z,45.40
2023-06-11T08:26:00.458Z,45.20
2023-06-11T08:28:26.891Z,44.70
2023-06-11T08:30:53.330Z,44.50
2023-06-11T08:33:19.983Z,44.20
2023-06-11T08:35:46.532Z,43.90
2023-06-11T08:38:12.996Z,43.60
2023-06-11T08:40:39.434Z,43.20
2023-06-11T08:43:05.884Z,42.90
2023-06-11T08:45:32.294Z,42.70
2023-06-11T08:47:58.819Z,42.50
2023-06-11T08:50:25.369Z,42.30
2023-06-11T08:52:51.806Z,41.80
2023-06-11T08:55:18.279Z,41.70
2023-06-11T08:57:44.760Z,41.40
2023-06-11T09:00:11.764Z,41.00
2023-06-11T09:02:38.478Z,40.60
2023-06-11T09:05:04.945Z,40.30
2023-06-11T09:07:31.422Z,40.10
2023-06-11T09:09:57.904Z,40.00
2023-06-11T09:12:24.405Z,39.70
2023-06-11T09:14:50.895Z,39.20
2023-06-11T09:17:17.336Z,39.20
2023-06-11T09:19:43.749Z,39.10
2023-06-11T09:22:10.219Z,39.20
2023-06-11T09:24:36.664Z,38.70
2023-06-11T09:27:03.112Z,38.90
2023-06-11T09:29:29.593Z,38.80
2023-06-11T09:31:56.130Z,38.70
2023-06-11T09:34:22.626Z,38.30
2023-06-11T09:36:49.110Z,38.00
2023-06-11T09:39:15.593Z,37.20
2023-06-11T09:41:42.098Z,37.20
2023-06-11T09:44:08.523Z,36.90
2023-06-11T09:46:35.249Z,36.70
2023-06-11T09:49:02.801Z,36.50
2023-06-11T09:51:29.293Z,36.90
2023-06-11T09:53:55.747Z,36.10
2023-06-11T09:56:22.243Z,35.90
2023-06-11T09:58:48.713Z,35.50
2023-06-11T10:01:15.199Z,35.30
2023-06-11T10:03:41.807Z,35.10
2023-06-11T10:06:08.348Z,34.20
2023-06-11T10:08:34.844Z,34.50
2023-06-11T10:11:01.274Z,34.40
2023-06-11T10:13:27.679Z,34.10
2023-06-11T10:15:54.154Z,33.80
2023-06-11T10:18:20.602Z,34.00
2023-06-11T10:20:47.088Z,33.70
2023-06-11T10:23:13.575Z,33.50
2023-06-11T10:25:40.020Z,33.50
2023-06-11T10:28:06.512Z,33.20
2023-06-11T10:30:32.938Z,33.10
2023-06-11T10:32:59.623Z,32.70
2023-06-11T10:35:26.450Z,31.80
2023-06-11T10:37:52.953Z,32.00
2023-06-11T10:40:21.110Z,32.00
2023-06-11T10:42:47.816Z,32.00
2023-06-11T10:45:14.312Z,31.80
2023-06-11T10:47:40.792Z,31.40
2023-06-11T10:50:07.327Z,31.60
2023-06-11T10:52:33.810Z,31.40
2023-06-11T10:55:00.251Z,31.30
2023-06-11T10:57:26.752Z,30.40
2023-06-11T10:59:53.541Z,31.00
2023-06-11T11:02:20.254Z,30.90
2023-06-11T11:04:46.828Z,31.00
2023-06-11T11:07:13.322Z,30.60
2023-06-11T11:09:39.823Z,30.40
2023-06-11T11:12:06.267Z,30.20
2023-06-11T11:14:32.695Z,30.40
2023-06-11T11:16:59.280Z,30.10
2023-06-11T11:19:25.797Z,30.00
2023-06-11T11:21:52.279Z,30.10
2023-06-11T11:24:18.893Z,29.90
2023-06-11T11:26:45.505Z,29.60
2023-06-11T11:29:11.992Z,29.60
2023-06-11T11:31:38.479Z,29.90
2023-06-11T11:34:04.958Z,30.00
2023-06-11T11:36:31.427Z,30.00
2023-06-11T11:38:57.865Z,29.70
2023-06-11T11:41:24.455Z,30.20
2023-06-11T11:43:50.950Z,30.40
2023-06-11T11:46:17.568Z,30.10
2023-06-11T11:48:44.092Z,30.40
2023-06-11T11:51:10.562Z,30.20
2023-06-11T11:53:37.083Z,30.10
2023-06-11T11:56:06.479Z,30.50
2023-06-11T11:58:33.563Z,30.40
2023-06-11T12:01:00.016Z,30.00
2023-06-11T12:03:26.576Z,30.10
2023-06-11T12:05:53.315Z,30.20
2023-06-11T12:08:19.966Z,30.40
2023-06-11T12:10:46.436Z,30.20
2023-06-11T12:13:12.918Z,30.20
2023-06-11T12:15:39.345Z,30.10
2023-06-11T12:18:05.909Z,30.00
2023-06-11T12:20:32.437Z,29.80
2023-06-11T12:22:58.903Z,29.50
2023-06-11T12:25:25.418Z,29.50
2023-06-11T12:27:51.965Z,29.30
2023-06-11T12:30:18.388Z,29.50
2023-06-11T12:32:44.894Z,29.60
2023-06-11T12:35:11.388Z,29.20
2023-06-11T12:37:37.846Z,29.60
2023-06-11T12:40:04.312Z,29.90
2023-06-11T12:42:30.810Z,29.90
2023-06-11T12:44:57.532Z,30.20
2023-06-11T12:47:24.049Z,30.00
2023-06-11T12:49:50.513Z,30.10
2023-06-11T12:52:16.988Z,29.80
2023-06-11T12:54:43.402Z,29.60
2023-06-11T12:57:09.865Z,29.40
2023-06-11T12:59:36.350Z,29.40
2023-06-11T13:02:02.855Z,29.30
2023-06-11T13:04:29.373Z,29.40
2023-06-11T13:06:55.887Z,29.70
2023-06-11T13:09:22.369Z,29.70
2023-06-11T13:11:48.894Z,29.70
2023-06-11T13:14:18.140Z,29.50
2023-06-11T13:16:45.513Z,29.30
2023-06-11T13:19:11.954Z,28.90
2023-06-11T13:21:38.429Z,28.80
2023-06-11T13:24:04.946Z,29.10
2023-06-11T13:26:31.418Z,29.00
2023-06-11T13:28:57.930Z,29.00
2023-06-11T13:31:24.589Z,29.20
2023-06-11T13:33:51.095Z,29.10
2023-06-11T13:36:17.624Z,29.10
2023-06-11T13:38:44.088Z,29.00
2023-06-11T13:41:10.704Z,29.00
2023-06-11T13:43:37.166Z,28.70
2023-06-11T13:46:03.585Z,28.80
2023-06-11T13:48:30.089Z,28.80
2023-06-11T13:50:56.549Z,28.80
2023-06-11T13:53:23.056Z,29.00
2023-06-11T13:55:49.890Z,29.00
2023-06-11T13:58:16.332Z,29.20
2023-06-11T14:00:42.809Z,29.40
2023-06-11T14:03:09.375Z,29.10
2023-06-11T14:05:35.891Z,29.30
2023-06-11T14:08:02.355Z,29.10
2023-06-11T14:10:28.833Z,28.90
2023-06-11T14:12:55.548Z,29.10
2023-06-11T14:15:22.062Z,29.20
2023-06-11T14:17:48.690Z,29.30
2023-06-11T14:20:17.713Z,29.30
2023-06-11T14:22:44.647Z,29.30
2023-06-11T14:25:11.136Z,29.60
2023-06-11T14:27:37.610Z,29.80
2023-06-11T14:30:04.100Z,30.00
2023-06-11T14:32:30.778Z,30.30
2023-06-11T14:34:57.327Z,30.00
2023-06-11T14:37:23.809Z,30.00
2023-06-11T14:39:50.455Z,29.90
2023-06-11T14:42:16.937Z,30.10
2023-06-11T14:44:43.433Z,30.30
2023-06-11T14:47:10.048Z,29.80
2023-06-11T14:49:36.511Z,29.80
2023-06-11T14:52:03.010Z,29.70
2023-06-11T14:54:29.472Z,29.60
2023-06-11T14:56:55.982Z,29.70
2023-06-11T14:59:22.506Z,29.80
2023-06-11T15:01:49.072Z,29.90
2023-06-11T15:04:15.699Z,29.90
2023-06-11T15:06:42.394Z,29.60
2023-06-11T15:09:08.956Z,29.50
2023-06-11T15:11:35.417Z,29.50
2023-06-11T15:14:01.881Z,29.60
2023-06-11T15:16:28.470Z,29.70
2023-06-11T15:18:54.993Z,29.70
2023-06-11T15:21:21.644Z,29.80
2023-06-11T15:23:48.153Z,29.70
2023-06-11T15:26:14.685Z,29.60
2023-06-11T15:28:41.264Z,29.90
2023-06-11T15:31:07.784Z,29.90
2023-06-11T15:33:34.258Z,30.00
2023-06-11T15:36:00.737Z,30.50
2023-06-11T15:38:28.687Z,30.00
2023-06-11T15:40:55.500Z,30.00
2023-06-11T15:43:22.050Z,29.60
2023-06-11T15:45:48.560Z,29.70
2023-06-11T15:48:15.093Z,29.70
2023-06-11T15:50:41.592Z,29.60
2023-06-11T15:53:08.127Z,29.60
2023-06-11T15:55:34.635Z,29.50
2023-06-11T15:58:01.083Z,29.40
2023-06-11T16:00:27.504Z,29.40
2023-06-11T16:02:53.998Z,29.50
2023-06-11T16:05:20.523Z,29.40
2023-06-11T16:07:46.977Z,29.50
2023-06-11T16:10:14.768Z,29.40
2023-06-11T16:12:41.621Z,29.60
2023-06-11T16:15:08.101Z,29.50
2023-06-11T16:17:34.633Z,29.60
2023-06-11T16:20:01.173Z,29.80
2023-06-11T16:22:27.735Z,29.70
2023-06-11T16:24:54.229Z,29.90
2023-06-11T16:27:20.724Z,29.80
2023-06-11T16:29:47.207Z,29.90
2023-06-11T16:32:13.662Z,29.70
2023-06-11T16:34:40.168Z,29.90
2023-06-11T16:37:06.680Z,30.00
2023-06-11T16:39:33.102Z,30.50
2023-06-11T16:41:59.589Z,30.10
2023-06-11T16:44:26.057Z,30.10
2023-06-11T16:46:52.572Z,30.20
2023-06-11T16:49:19.053Z,30.10
2023-06-11T16:51:45.532Z,30.20
2023-06-11T16:54:12.546Z,30.40
2023-06-11T16:56:39.412Z,29.80
2023-06-11T16:59:05.861Z,29.80
2023-06-11T17:01:32.498Z,29.80
2023-06-11T17:03:59.161Z,30.00
2023-06-11T17:06:25.693Z,30.20
2023-06-11T17:08:52.149Z,30.20
2023-06-11T17:11:18.577Z,30.40
2023-06-11T17:13:44.994Z,30.50
2023-06-11T17:16:11.471Z,30.00
2023-06-11T17:18:37.973Z,30.10
2023-06-11T17:21:04.496Z,30.10
2023-06-11T17:23:31.152Z,30.20
2023-06-11T17:25:57.651Z,30.20
2023-06-11T17:28:24.108Z,30.30
2023-06-11T17:30:50.541Z,30.20
2023-06-11T17:33:17.012Z,30.50
2023-06-11T17:35:43.531Z,30.80
2023-06-11T17:38:09.969Z,30.90
2023-06-11T17:40:36.408Z,30.90
2023-06-11T17:43:02.885Z,30.70
2023-06-11T17:45:29.400Z,30.90
2023-06-11T17:47:55.896Z,30.90
2023-06-11T17:50:22.441Z,31.00
2023-06-11T17:52:48.958Z,31.10
2023-06-11T17:55:15.515Z,31.40
2023-06-11T17:57:42.023Z,31.80
2023-06-11T18:00:08.695Z,31.80
2023-06-11T18:02:35.391Z,32.20
2023-06-11T18:05:01.940Z,32.60
2023-06-11T18:07:28.412Z,32.70
2023-06-11T18:09:54.864Z,32.50
2023-06-11T18:12:21.308Z,32.90
2023-06-11T18:14:47.785Z,33.10
2023-06-11T18:17:14.264Z,33.20
2023-06-11T18:19:40.767Z,33.20
2023-06-11T18:22:07.232Z,33.10
2023-06-11T18:24:33.766Z,33.40
2023-06-11T18:27:00.303Z,33.50
2023-06-11T18:29:28.447Z,33.50
2023-06-11T18:31:55.645Z,33.50
2023-06-11T18:34:22.178Z,33.70
2023-06-11T18:36:48.673Z,33.80
2023-06-11T18:39:15.103Z,33.40
2023-06-11T18:41:41.567Z,33.60
2023-06-11T18:44:08.050Z,33.50
2023-06-11T18:46:35.467Z,33.80
2023-06-11T18:49:03.500Z,33.80
2023-06-11T18:51:29.963Z,34.00
2023-06-11T18:53:56.430Z,34.00
2023-06-11T18:56:22.979Z,34.10
2023-06-11T18:58:49.497Z,34.00
2023-06-11T19:01:16.025Z,34.10
2023-06-11T19:03:44.794Z,34.20
2023-06-11T19:06:11.768Z,34.10
2023-06-11T19:08:38.259Z,34.50
2023-06-11T19:11:04.728Z,34.50
2023-06-11T19:13:31.186Z,34.70
2023-06-11T19:15:57.674Z,34.90
2023-06-11T19:18:24.095Z,35.20
2023-06-11T19:20:50.567Z,35.30
2023-06-11T19:23:17.054Z,35.50
2023-06-11T19:25:43.522Z,35.70
2023-06-11T19:28:10.045Z,35.70
2023-06-11T19:30:36.640Z,35.90
2023-06-11T19:33:03.240Z,36.00
2023-06-11T19:35:29.881Z,36.20
2023-06-11T19:37:56.426Z,36.30
2023-06-11T19:40:22.874Z,36.40
2023-06-11T19:42:49.427Z,36.50
2023-06-11T19:45:15.869Z,36.60
2023-06-11T19:47:42.393Z,36.40
2023-06-11T19:50:09.065Z,36.10
2023-06-11T19:52:35.689Z,36.00
2023-06-11T19:55:02.119Z,36.10
2023-06-11T19:57:28.766Z,36.00
2023-06-11T19:59:55.413Z,36.20
2023-06-11T20:02:21.941Z,36.40
2023-06-11T20:04:48.458Z,36.50
2023-06-11T20:07:14.957Z,36.40
2023-06-11T20:09:41.387Z,36.40
2023-06-11T20:12:07.979Z,36.40
2023-06-11T20:14:34.604Z,36.40
2023-06-11T20:17:01.118Z,36.30
2023-06-11T20:19:27.574Z,36.20
2023-06-11T20:21:54.048Z,36.20
2023-06-11T20:24:20.669Z,36.20
2023-06-11T20:26:47.235Z,36.20
2023-06-11T20:29:13.674Z,36.30
2023-06-11T20:31:40.223Z,36.40
2023-06-11T20:34:06.787Z,36.30
2023-06-11T20:36:33.275Z,36.30
2023-06-11T20:38:59.741Z,36.30
2023-06-11T20:41:26.180Z,36.30
2023-06-11T20:43:52.650Z,36.30
2023-06-11T20:46:29.306Z,36.20
2023-06-11T20:48:56.325Z,36.30
2023-06-11T20:51:22.873Z,36.30
2023-06-11T20:53:49.468Z,36.30
2023-06-11T20:56:15.951Z,36.40
2023-06-11T20:58:42.473Z,36.50
2023-06-11T21:01:09.009Z,36.50
2023-06-11T21:03:35.575Z,36.60
2023-06-11T21:06:02.076Z,36.70
2023-06-11T21:08:28.592Z,36.90
2023-06-11T21:10:55.023Z,37.00
2023-06-11T21:13:21.514Z,37.30
2023-06-11T21:15:47.993Z,37.40
2023-06-11T21:18:14.552Z,37.60
2023-06-11T21:20:41.097Z,37.60
2023-06-11T21:23:07.693Z,37.60
2023-06-11T21:25:37.749Z,37.60
2023-06-11T21:28:04.227Z,37.60
2023-06-11T21:30:30.665Z,37.60
2023-06-11T21:32:57.175Z,37.70
2023-06-11T21:35:23.963Z,37.70
2023-06-11T21:37:50.461Z,37.80
2023-06-11T21:40:16.969Z,38.00
2023-06-11T21:42:43.695Z,38.00
2023-06-11T21:45:10.214Z,38.10
2023-06-11T21:47:36.701Z,38.20
2023-06-11T21:50:03.171Z,38.30
2023-06-11T21:52:29.648Z,38.40
2023-06-11T21:54:56.105Z,38.50
2023-06-11T21:57:22.576Z,38.50
2023-06-11T21:59:49.176Z,38.60
2023-06-11T22:02:15.768Z,38.60
2023-06-11T22:04:42.247Z,38.60
2023-06-11T22:07:08.700Z,38.70
2023-06-11T22:09:35.198Z,38.80
2023-06-11T22:12:01.659Z,38.80
2023-06-11T22:14:28.149Z,38.80
2023-06-11T22:16:54.900Z,38.90
2023-06-11T22:19:21.413Z,38.90
2023-06-11T22:21:47.889Z,39.10
2023-06-11T22:24:14.412Z,39.10
2023-06-11T22:26:40.958Z,39.20
2023-06-11T22:29:07.463Z,39.30
2023-06-11T22:31:33.990Z,39.30
2023-06-11T22:34:00.531Z,39.30
2023-06-11T22:36:26.961Z,39.30
2023-06-11T22:38:53.394Z,39.40
2023-06-11T22:41:20.052Z,39.40
2023-06-11T22:43:46.506Z,39.40
2023-06-11T22:46:12.975Z,39.50
2023-06-11T22:48:39.485Z,39.60
2023-06-11T22:51:05.927Z,39.60
2023-06-11T22:53:32.406Z,39.60
2023-06-11T22:55:58.853Z,39.70
2023-06-11T22:58:25.536Z,39.80
2023-06-11T23:00:52.038Z,39.80
2023-06-11T23:03:18.622Z,40.00
2023-06-11T23:05:45.170Z,40.10
2023-06-11T23:08:11.622Z,40.30
2023-06-11T23:10:38.056Z,40.40
2023-06-11T23:13:04.496Z,40.60
2023-06-11T23:15:30.974Z,40.80
2023-06-11T23:17:57.495Z,40.90
2023-06-11T23:20:24.000Z,41.00
2023-06-11T23:22:50.498Z,41.10
2023-06-11T23:25:16.962Z,41.20
2023-06-11T23:27:43.428Z,41.40
2023-06-11T23:30:10.107Z,41.40
2023-06-11T23:32:36.731Z,41.50
2023-06-11T23:35:03.233Z,41.70
2023-06-11T23:37:29.725Z,41.90
2023-06-11T23:39:56.238Z,42.20
2023-06-11T23:42:22.702Z,42.30
2023-06-11T23:44:49.393Z,42.30
2023-06-11T23:47:15.832Z,42.40
2023-06-11T23:49:42.276Z,42.40
2023-06-11T23:52:08.740Z,42.30
2023-06-11T23:54:35.215Z,42.40
2023-06-11T23:57:01.694Z,42.40
2023-06-11T23:59:28.188Z,42.50
